Time;durP1;ratioP1;P1;durP2;ratioP2;P2;SDS_P1;SDS_P2;PMS_P1;PMS_P2;Temp;Humidity;BMP_temperature;BMP_pressure;BME280_temperature;BME280_humidity;BME280_pressure;Samples;Min_cycle;Max_cycle;Signal;HPM_P1;HPM_P2
2022/04/09 00:00:32;;;;;;;0.60;0.40;;;;;;;;;;5034434;28;20392;-72
2022/04/09 00:02:58;;;;;;;0.70;0.50;;;;;;;;;;5033064;28;20404;-64
2022/04/09 00:05:25;;;;;;;0.82;0.63;;;;;;;;;;5034161;28;20217;-72
2022/04/09 00:07:51;;;;;;;0.60;0.50;;;;;;;;;;5034172;28;20163;-67
2022/04/09 00:10:17;;;;;;;0.50;0.40;;;;;;;;;;5034224;28;20352;-72
2022/04/09 00:12:45;;;;;;;0.80;0.60;;;;;;;;;;5034189;28;20408;-70
2022/04/09 00:15:12;;;;;;;0.70;0.60;;;;;;;;;;5034044;28;20856;-68
2022/04/09 00:17:42;;;;;;;0.60;0.50;;;;;;;;;;5033941;28;20186;-73
2022/04/09 00:20:09;;;;;;;0.70;0.70;;;;;;;;;;5034014;28;20227;-73
2022/04/09 00:22:35;;;;;;;0.60;0.60;;;;;;;;;;5033997;28;20532;-69
2022/04/09 00:25:01;;;;;;;0.82;0.82;;;;;;;;;;5033880;28;20193;-73
2022/04/09 00:27:27;;;;;;;1.00;0.90;;;;;;;;;;5033799;28;20251;-72
2022/04/09 00:29:54;;;;;;;0.93;0.82;;;;;;;;;;5033756;28;20214;-72
2022/04/09 00:32:20;;;;;;;0.70;0.70;;;;;;;;;;5033837;28;20193;-72
2022/04/09 00:34:46;;;;;;;0.80;0.73;;;;;;;;;;5033696;28;20560;-72
2022/04/09 00:37:12;;;;;;;0.93;0.93;;;;;;;;;;5033635;28;20495;-70
2022/04/09 00:39:38;;;;;;;2.70;1.03;;;;;;;;;;5033601;28;20411;-72
2022/04/09 00:42:04;;;;;;;1.20;1.10;;;;;;;;;;5033718;28;20424;-74
2022/04/09 00:44:31;;;;;;;1.13;1.00;;;;;;;;;;5033642;28;20886;-74
2022/04/09 00:46:57;;;;;;;0.80;0.80;;;;;;;;;;5033441;28;20180;-74
2022/04/09 00:49:24;;;;;;;1.00;1.00;;;;;;;;;;5033466;28;20299;-72
2022/04/09 00:51:51;;;;;;;1.10;1.10;;;;;;;;;;5033510;28;20181;-74
2022/04/09 00:54:20;;;;;;;0.75;0.75;;;;;;;;;;5033300;28;20549;-74
2022/04/09 00:56:46;;;;;;;0.80;0.80;;;;;;;;;;5033296;28;20196;-71
2022/04/09 00:59:14;;;;;;;0.60;0.60;;;;;;;;;;5031246;28;20687;-73
2022/04/09 01:01:40;;;;;;;0.80;0.80;;;;;;;;;;5033114;28;20543;-72
2022/04/09 01:04:10;;;;;;;0.70;0.70;;;;;;;;;;5032832;28;20222;-71
2022/04/09 01:06:37;;;;;;;1.55;0.70;;;;;;;;;;5033168;28;20319;-73
2022/04/09 01:09:04;;;;;;;1.02;0.70;;;;;;;;;;5033081;28;20264;-73
2022/04/09 01:11:30;;;;;;;0.70;0.70;;;;;;;;;;5033335;28;20578;-75
2022/04/09 01:13:56;;;;;;;1.00;0.90;;;;;;;;;;5033254;28;20310;-74
2022/04/09 01:16:24;;;;;;;0.95;0.95;;;;;;;;;;5033068;28;20416;-66
2022/04/09 01:18:50;;;;;;;1.30;1.10;;;;;;;;;;5032933;28;20163;-74
2022/04/09 01:21:16;;;;;;;1.23;1.13;;;;;;;;;;5032998;28;20171;-67
2022/04/09 01:23:42;;;;;;;1.20;0.95;;;;;;;;;;5032966;28;20411;-70
2022/04/09 01:26:08;;;;;;;0.93;0.93;;;;;;;;;;5032848;28;20193;-71
2022/04/09 01:28:35;;;;;;;3.97;1.60;;;;;;;;;;5031449;28;20192;-73
2022/04/09 01:31:01;;;;;;;1.42;1.33;;;;;;;;;;5032820;28;20466;-74
2022/04/09 01:33:27;;;;;;;1.80;1.70;;;;;;;;;;5032891;28;20201;-70
2022/04/09 01:35:53;;;;;;;1.70;1.60;;;;;;;;;;5032899;28;20178;-72
2022/04/09 01:38:19;;;;;;;2.10;1.30;;;;;;;;;;5032600;28;20442;-74
2022/04/09 01:40:45;;;;;;;2.10;1.70;;;;;;;;;;5032874;28;20195;-73
2022/04/09 01:43:11;;;;;;;1.47;1.33;;;;;;;;;;5031609;28;20419;-71
2022/04/09 01:45:37;;;;;;;1.50;1.40;;;;;;;;;;5032933;28;20420;-75
2022/04/09 01:48:03;;;;;;;2.53;1.30;;;;;;;;;;5032727;28;20228;-72
2022/04/09 01:50:30;;;;;;;2.30;1.47;;;;;;;;;;5032663;28;20620;-75
2022/04/09 01:52:56;;;;;;;2.17;1.60;;;;;;;;;;5032738;28;20403;-74
2022/04/09 01:55:22;;;;;;;1.60;1.50;;;;;;;;;;5032662;28;20193;-74
2022/04/09 01:57:51;;;;;;;2.17;1.80;;;;;;;;;;5032444;28;20411;-74
2022/04/09 02:00:17;;;;;;;1.93;1.70;;;;;;;;;;5032642;28;20554;-75
2022/04/09 02:02:44;;;;;;;2.20;2.00;;;;;;;;;;5031386;28;20416;-71
2022/04/09 02:05:11;;;;;;;1.97;1.73;;;;;;;;;;5032413;28;20474;-75
2022/04/09 02:07:37;;;;;;;2.13;1.97;;;;;;;;;;5032587;28;20543;-75
2022/04/09 02:10:04;;;;;;;2.10;1.90;;;;;;;;;;5034473;28;20622;-74
2022/04/09 02:12:34;;;;;;;5.53;2.30;;;;;;;;;;5036290;28;20405;-75
2022/04/09 02:15:07;;;;;;;2.30;1.87;;;;;;;;;;5036294;28;20404;-76
2022/04/09 02:17:35;;;;;;;1.80;1.70;;;;;;;;;;5036091;28;20461;-75
2022/04/09 02:20:01;;;;;;;2.23;2.03;;;;;;;;;;5036215;28;20458;-75
2022/04/09 02:22:33;;;;;;;2.10;1.87;;;;;;;;;;5036201;28;20401;-74
2022/04/09 02:24:59;;;;;;;2.33;2.20;;;;;;;;;;5036090;28;20434;-75
2022/04/09 02:27:25;;;;;;;2.47;2.17;;;;;;;;;;5036012;28;20407;-75
2022/04/09 02:29:51;;;;;;;2.50;2.27;;;;;;;;;;5035953;28;20554;-74
2022/04/09 02:32:17;;;;;;;3.43;2.90;;;;;;;;;;5036035;28;20414;-76
2022/04/09 02:34:43;;;;;;;2.87;2.57;;;;;;;;;;5036046;28;20457;-70
2022/04/09 02:37:09;;;;;;;4.37;2.83;;;;;;;;;;5035872;28;20402;-76
2022/04/09 02:39:35;;;;;;;2.53;2.33;;;;;;;;;;5036067;28;20499;-77
2022/04/09 02:42:01;;;;;;;5.83;2.50;;;;;;;;;;5035892;28;20396;-73
2022/04/09 02:44:28;;;;;;;4.23;2.73;;;;;;;;;;5035850;28;20408;-75
2022/04/09 02:46:54;;;;;;;2.50;2.30;;;;;;;;;;5035816;28;20475;-76
2022/04/09 02:49:20;;;;;;;3.73;2.40;;;;;;;;;;5035576;28;20407;-73
2022/04/09 02:51:46;;;;;;;2.10;2.00;;;;;;;;;;5035529;28;20439;-76
2022/04/09 02:54:16;;;;;;;3.53;2.60;;;;;;;;;;5035621;28;20488;-76
2022/04/09 02:56:46;;;;;;;1.97;1.87;;;;;;;;;;5035688;28;20971;-74
2022/04/09 02:59:13;;;;;;;1.90;1.80;;;;;;;;;;5035593;28;20407;-76
2022/04/09 03:01:41;;;;;;;2.67;2.20;;;;;;;;;;5035647;28;20263;-76
2022/04/09 03:04:07;;;;;;;2.40;2.30;;;;;;;;;;5035226;28;20814;-75
2022/04/09 03:06:33;;;;;;;1.90;1.73;;;;;;;;;;5035393;28;20479;-74
2022/04/09 03:08:59;;;;;;;3.00;2.40;;;;;;;;;;5035233;28;20935;-75
2022/04/09 03:11:25;;;;;;;6.50;2.97;;;;;;;;;;5035188;28;20600;-74
2022/04/09 03:13:51;;;;;;;3.60;1.90;;;;;;;;;;5033913;28;20505;-75
2022/04/09 03:16:17;;;;;;;2.20;2.00;;;;;;;;;;5034632;28;20716;-75
2022/04/09 03:18:43;;;;;;;2.00;1.90;;;;;;;;;;5035058;28;20408;-74
2022/04/09 03:21:09;;;;;;;2.23;2.03;;;;;;;;;;5034493;28;20422;-75
2022/04/09 03:23:35;;;;;;;1.70;1.60;;;;;;;;;;5035093;28;20442;-73
2022/04/09 03:26:01;;;;;;;3.83;2.30;;;;;;;;;;5034809;28;20467;-75
2022/04/09 03:28:27;;;;;;;2.40;2.20;;;;;;;;;;5034871;28;20411;-74
2022/04/09 03:30:53;;;;;;;2.43;2.20;;;;;;;;;;5034825;28;20470;-76
2022/04/09 03:33:19;;;;;;;3.70;2.67;;;;;;;;;;5034849;28;20416;-66
2022/04/09 03:35:47;;;;;;;2.83;2.60;;;;;;;;;;5034562;28;20404;-74
2022/04/09 03:38:13;;;;;;;3.23;2.93;;;;;;;;;;5034802;28;20411;-75
2022/04/09 03:40:40;;;;;;;7.37;3.90;;;;;;;;;;5034733;28;20401;-75
2022/04/09 03:43:06;;;;;;;5.80;4.03;;;;;;;;;;5034662;28;20412;-76
2022/04/09 03:45:32;;;;;;;5.50;4.23;;;;;;;;;;5034645;28;20443;-75
2022/04/09 03:47:58;;;;;;;5.40;4.37;;;;;;;;;;5034675;28;20421;-76
2022/04/09 03:50:24;;;;;;;5.77;3.70;;;;;;;;;;5033235;28;20471;-76
2022/04/09 03:52:50;;;;;;;6.40;4.50;;;;;;;;;;5034545;28;20438;-74
2022/04/09 03:55:16;;;;;;;5.87;4.50;;;;;;;;;;5034401;28;20437;-74
2022/04/09 03:57:42;;;;;;;8.80;5.80;;;;;;;;;;5034549;28;20414;-73
2022/04/09 04:00:09;;;;;;;8.10;4.90;;;;;;;;;;5033111;28;20426;-75
2022/04/09 04:02:36;;;;;;;8.50;5.20;;;;;;;;;;5033102;28;20925;-75
2022/04/09 04:05:03;;;;;;;10.97;6.03;;;;;;;;;;5034045;28;20518;-72
2022/04/09 04:07:32;;;;;;;11.70;6.50;;;;;;;;;;5034330;28;20407;-75
2022/04/09 04:10:02;;;;;;;16.60;6.70;;;;;;;;;;5034248;28;20833;-69
2022/04/09 04:12:28;;;;;;;12.30;6.13;;;;;;;;;;5034234;28;20498;-77
2022/04/09 04:14:54;;;;;;;10.93;7.23;;;;;;;;;;5034132;28;20419;-76
2022/04/09 04:17:20;;;;;;;11.17;6.50;;;;;;;;;;5033939;28;20414;-75
2022/04/09 04:19:46;;;;;;;12.53;7.00;;;;;;;;;;5034182;28;20457;-74
2022/04/09 04:22:12;;;;;;;10.47;7.13;;;;;;;;;;5033995;28;20400;-76
2022/04/09 04:24:38;;;;;;;11.20;7.10;;;;;;;;;;5033827;28;20957;-72
2022/04/09 04:27:07;;;;;;;10.27;6.93;;;;;;;;;;5033917;28;20730;-77
2022/04/09 04:29:34;;;;;;;12.63;7.57;;;;;;;;;;5033869;28;20968;-72
2022/04/09 04:32:00;;;;;;;10.77;6.70;;;;;;;;;;5033670;28;20414;-76
2022/04/09 04:34:26;;;;;;;10.73;7.30;;;;;;;;;;5033067;28;20391;-75
2022/04/09 04:36:52;;;;;;;12.17;8.20;;;;;;;;;;5033617;28;20412;-76
2022/04/09 04:39:18;;;;;;;10.73;7.50;;;;;;;;;;5033694;28;20881;-68
2022/04/09 04:41:44;;;;;;;9.93;6.87;;;;;;;;;;5033675;28;20415;-76
2022/04/09 04:44:11;;;;;;;11.33;7.77;;;;;;;;;;5033612;28;20404;-75
2022/04/09 04:46:39;;;;;;;15.80;7.90;;;;;;;;;;5033586;28;20396;-76
2022/04/09 04:49:05;;;;;;;12.43;7.33;;;;;;;;;;5033400;28;20412;-77
2022/04/09 04:51:31;;;;;;;11.93;7.90;;;;;;;;;;5033494;28;20529;-75
2022/04/09 04:53:58;;;;;;;12.87;7.40;;;;;;;;;;5033481;28;20436;-77
2022/04/09 04:56:25;;;;;;;9.47;6.87;;;;;;;;;;5033288;28;20434;-77
2022/04/09 04:58:51;;;;;;;13.57;7.00;;;;;;;;;;5033362;28;20494;-76
2022/04/09 05:01:17;;;;;;;9.10;6.87;;;;;;;;;;5033421;28;20885;-76
2022/04/09 05:03:43;;;;;;;9.70;6.70;;;;;;;;;;5033258;28;20934;-77
2022/04/09 05:06:09;;;;;;;10.57;7.23;;;;;;;;;;5033261;28;20420;-73
2022/04/09 05:08:35;;;;;;;10.93;6.03;;;;;;;;;;5033220;28;20439;-73
2022/04/09 05:11:01;;;;;;;13.50;6.67;;;;;;;;;;5033101;28;21050;-76
2022/04/09 05:13:27;;;;;;;12.13;7.30;;;;;;;;;;5033165;28;20450;-76
2022/04/09 05:15:53;;;;;;;8.40;6.43;;;;;;;;;;5033054;28;20394;-66
2022/04/09 05:18:19;;;;;;;12.17;6.40;;;;;;;;;;5033076;28;20400;-69
2022/04/09 05:20:45;;;;;;;11.37;6.27;;;;;;;;;;5031821;28;20420;-70
2022/04/09 05:23:11;;;;;;;11.00;6.50;;;;;;;;;;5033013;28;20406;-67
2022/04/09 05:25:37;;;;;;;12.60;7.60;;;;;;;;;;5032944;28;20832;-76
2022/04/09 05:28:04;;;;;;;12.60;7.37;;;;;;;;;;5033035;28;20404;-65
2022/04/09 05:30:31;;;;;;;8.53;6.40;;;;;;;;;;5033008;28;20979;-65
2022/04/09 05:32:57;;;;;;;10.20;6.43;;;;;;;;;;5033008;28;20407;-77
2022/04/09 05:35:23;;;;;;;7.20;6.20;;;;;;;;;;5032820;28;20907;-76
2022/04/09 05:37:50;;;;;;;13.67;7.00;;;;;;;;;;5032858;28;20408;-67
2022/04/09 05:40:17;;;;;;;14.43;6.50;;;;;;;;;;5032955;28;20419;-71
2022/04/09 05:42:43;;;;;;;9.20;6.87;;;;;;;;;;5032874;28;20435;-76
2022/04/09 05:45:09;;;;;;;11.63;6.70;;;;;;;;;;5035365;28;20462;-76
2022/04/09 05:47:39;;;;;;;11.10;6.27;;;;;;;;;;5036939;28;20391;-75
2022/04/09 05:50:05;;;;;;;10.83;6.20;;;;;;;;;;5036851;28;20478;-68
2022/04/09 05:52:31;;;;;;;9.60;6.20;;;;;;;;;;5036969;28;20497;-74
2022/04/09 05:54:57;;;;;;;11.60;6.80;;;;;;;;;;5036584;28;20459;-77
2022/04/09 05:57:23;;;;;;;8.00;5.67;;;;;;;;;;5036685;28;20780;-76
2022/04/09 05:59:49;;;;;;;6.97;5.50;;;;;;;;;;5036771;28;20403;-67
2022/04/09 06:02:15;;;;;;;10.33;6.53;;;;;;;;;;5036675;28;20765;-76
2022/04/09 06:04:41;;;;;;;9.03;5.83;;;;;;;;;;5036503;28;20507;-77
2022/04/09 06:07:09;;;;;;;9.73;6.23;;;;;;;;;;5036512;28;20768;-73
2022/04/09 06:09:35;;;;;;;7.90;6.13;;;;;;;;;;5036482;28;20946;-76
2022/04/09 06:12:01;;;;;;;7.03;5.83;;;;;;;;;;5036373;28;20911;-76
2022/04/09 06:14:27;;;;;;;9.40;5.90;;;;;;;;;;5036327;28;20824;-76
2022/04/09 06:16:54;;;;;;;9.17;6.67;;;;;;;;;;5036197;28;20426;-71
2022/04/09 06:19:20;;;;;;;8.30;6.03;;;;;;;;;;5034960;28;20474;-75
2022/04/09 06:21:45;;;;;;;6.70;5.17;;;;;;;;;;5036328;28;20422;-68
2022/04/09 06:24:12;;;;;;;10.23;6.07;;;;;;;;;;5036162;28;20427;-73
2022/04/09 06:26:38;;;;;;;10.70;6.17;;;;;;;;;;5034839;28;20482;-70
2022/04/09 06:29:04;;;;;;;11.77;6.53;;;;;;;;;;5036208;28;20804;-77
2022/04/09 06:31:30;;;;;;;7.53;6.73;;;;;;;;;;5035965;28;20588;-77
2022/04/09 06:33:56;;;;;;;7.40;4.97;;;;;;;;;;5036102;28;20416;-78
2022/04/09 06:36:22;;;;;;;9.50;5.40;;;;;;;;;;5035913;28;20416;-73
2022/04/09 06:38:48;;;;;;;10.00;5.93;;;;;;;;;;5035969;28;20400;-77
2022/04/09 06:41:18;;;;;;;7.93;4.87;;;;;;;;;;5035941;28;20402;-79
2022/04/09 06:43:44;;;;;;;6.50;4.50;;;;;;;;;;5035951;28;20431;-75
2022/04/09 06:46:10;;;;;;;8.23;5.50;;;;;;;;;;5035805;28;20412;-77
2022/04/09 06:48:37;;;;;;;12.87;5.10;;;;;;;;;;5035772;28;20819;-76
2022/04/09 06:51:04;;;;;;;8.37;5.13;;;;;;;;;;5035601;28;20570;-77
2022/04/09 06:53:30;;;;;;;7.03;5.00;;;;;;;;;;5035667;28;20482;-75
2022/04/09 06:55:56;;;;;;;11.03;5.03;;;;;;;;;;5034518;28;20931;-87
2022/04/09 06:58:22;;;;;;;7.87;5.70;;;;;;;;;;5036191;28;20417;-88
2022/04/09 07:00:48;;;;;;;8.17;5.73;;;;;;;;;;5041375;28;20410;-91
2022/04/09 07:03:14;;;;;;;6.80;4.87;;;;;;;;;;5046041;28;20411;-89
2022/04/09 07:05:41;;;;;;;9.13;5.37;;;;;;;;;;5045932;28;20495;-91
2022/04/09 07:08:08;;;;;;;7.03;5.50;;;;;;;;;;5046474;28;20414;-69
2022/04/09 07:10:36;;;;;;;9.80;6.00;;;;;;;;;;5039960;28;20480;-77
2022/04/09 07:13:02;;;;;;;7.50;5.73;;;;;;;;;;5037245;28;20404;-83
2022/04/09 07:15:28;;;;;;;7.07;5.43;;;;;;;;;;5037914;28;20448;-74
2022/04/09 07:17:55;;;;;;;7.47;5.93;;;;;;;;;;5038221;28;20446;-70
2022/04/09 07:20:21;;;;;;;8.77;5.60;;;;;;;;;;5039643;28;20971;-78
2022/04/09 07:22:47;;;;;;;9.40;5.00;;;;;;;;;;5036144;28;20480;-79
2022/04/09 07:25:16;;;;;;;9.40;5.17;;;;;;;;;;5033858;28;20931;-79
2022/04/09 07:27:43;;;;;;;7.30;5.63;;;;;;;;;;5035141;28;20406;-68
2022/04/09 07:30:13;;;;;;;6.80;5.53;;;;;;;;;;5035068;28;20462;-77
2022/04/09 07:32:40;;;;;;;7.00;4.93;;;;;;;;;;5035296;28;20771;-71
2022/04/09 07:35:08;;;;;;;7.77;4.80;;;;;;;;;;5035006;28;20438;-72
2022/04/09 07:37:39;;;;;;;14.40;4.90;;;;;;;;;;5034848;28;20404;-72
2022/04/09 07:40:05;;;;;;;8.33;5.13;;;;;;;;;;5035009;28;20416;-77
2022/04/09 07:42:31;;;;;;;7.13;5.03;;;;;;;;;;5034837;28;20407;-82
2022/04/09 07:44:57;;;;;;;8.43;4.97;;;;;;;;;;5034867;28;20408;-76
2022/04/09 07:47:23;;;;;;;5.63;4.20;;;;;;;;;;5034729;28;20738;-65
2022/04/09 07:49:49;;;;;;;6.43;4.90;;;;;;;;;;5034561;28;20458;-78
2022/04/09 07:52:15;;;;;;;10.53;4.87;;;;;;;;;;5033480;28;20489;-81
2022/04/09 07:54:41;;;;;;;9.10;5.00;;;;;;;;;;5034324;28;20941;-71
2022/04/09 07:57:07;;;;;;;9.20;5.10;;;;;;;;;;5034498;28;20412;-81
2022/04/09 07:59:33;;;;;;;5.50;4.67;;;;;;;;;;5034474;28;20442;-64
2022/04/09 08:01:59;;;;;;;5.70;4.33;;;;;;;;;;5032973;28;20836;-79
2022/04/09 08:04:25;;;;;;;7.40;5.00;;;;;;;;;;5034160;28;20502;-78
2022/04/09 08:06:51;;;;;;;5.87;4.30;;;;;;;;;;5034029;28;20425;-66
2022/04/09 08:09:17;;;;;;;7.40;5.27;;;;;;;;;;5034264;28;20882;-80
2022/04/09 08:11:45;;;;;;;7.80;4.80;;;;;;;;;;5034224;28;20448;-80
2022/04/09 08:14:11;;;;;;;6.33;4.20;;;;;;;;;;5034331;28;20884;-72
2022/04/09 08:16:38;;;;;;;6.77;5.00;;;;;;;;;;5034076;28;20457;-79
2022/04/09 08:19:04;;;;;;;6.40;4.20;;;;;;;;;;5034104;28;20450;-79
2022/04/09 08:21:30;;;;;;;9.00;4.90;;;;;;;;;;5034081;28;20913;-78
2022/04/09 08:23:56;;;;;;;6.83;4.77;;;;;;;;;;5034128;28;20441;-78
2022/04/09 08:26:22;;;;;;;5.70;4.40;;;;;;;;;;5033952;28;20430;-80
2022/04/09 08:28:48;;;;;;;7.00;3.90;;;;;;;;;;5033866;28;20896;-81
2022/04/09 08:31:14;;;;;;;7.30;4.63;;;;;;;;;;5033730;28;20472;-81
2022/04/09 08:33:42;;;;;;;6.23;4.57;;;;;;;;;;5033859;28;20410;-81
2022/04/09 08:36:08;;;;;;;4.30;3.90;;;;;;;;;;5033586;28;20846;-80
2022/04/09 08:38:34;;;;;;;6.17;4.23;;;;;;;;;;5033558;28;20411;-75
2022/04/09 08:41:03;;;;;;;8.77;4.10;;;;;;;;;;5033555;28;20444;-76
2022/04/09 08:43:29;;;;;;;7.20;4.20;;;;;;;;;;5033474;28;20445;-79
2022/04/09 08:45:55;;;;;;;4.00;3.40;;;;;;;;;;5033584;28;20445;-79
2022/04/09 08:48:22;;;;;;;9.37;4.70;;;;;;;;;;5033515;28;20461;-81
2022/04/09 08:50:48;;;;;;;6.23;4.10;;;;;;;;;;5033386;28;20571;-81
2022/04/09 08:53:14;;;;;;;4.00;3.70;;;;;;;;;;5033514;28;20404;-79
2022/04/09 08:55:40;;;;;;;7.30;3.67;;;;;;;;;;5033267;28;20438;-81
2022/04/09 08:58:06;;;;;;;7.30;3.50;;;;;;;;;;5033427;28;20498;-75
2022/04/09 09:00:33;;;;;;;9.40;4.07;;;;;;;;;;5033317;28;20477;-75
2022/04/09 09:03:01;;;;;;;4.93;3.80;;;;;;;;;;5033381;28;20412;-78
2022/04/09 09:05:34;;;;;;;8.73;3.80;;;;;;;;;;5033237;28;20471;-66
2022/04/09 09:08:01;;;;;;;5.40;4.23;;;;;;;;;;5033279;28;20910;-79
2022/04/09 09:10:27;;;;;;;8.00;4.10;;;;;;;;;;5033279;28;20852;-76
2022/04/09 09:12:58;;;;;;;6.90;4.00;;;;;;;;;;5033310;28;20753;-80
2022/04/09 09:15:24;;;;;;;5.33;4.10;;;;;;;;;;5033206;28;20438;-71
2022/04/09 09:17:54;;;;;;;4.10;3.40;;;;;;;;;;5033218;28;20442;-78
2022/04/09 09:20:20;;;;;;;10.00;4.43;;;;;;;;;;5032597;28;20768;-76
2022/04/09 09:22:49;;;;;;;5.63;3.50;;;;;;;;;;5033201;28;20499;-80
2022/04/09 09:25:15;;;;;;;7.13;4.13;;;;;;;;;;5033060;28;20435;-68
2022/04/09 09:27:41;;;;;;;6.13;3.83;;;;;;;;;;5032966;28;20411;-69
2022/04/09 09:30:09;;;;;;;6.57;3.90;;;;;;;;;;5032926;28;20447;-80
2022/04/09 09:32:35;;;;;;;8.70;3.77;;;;;;;;;;5031702;28;21002;-74
2022/04/09 09:35:02;;;;;;;3.60;3.10;;;;;;;;;;5032758;28;20413;-72
2022/04/09 09:37:29;;;;;;;6.23;3.30;;;;;;;;;;5033015;28;20501;-88
2022/04/09 09:39:55;;;;;;;9.07;3.40;;;;;;;;;;5033215;28;20396;-85
2022/04/09 09:42:22;;;;;;;4.93;3.10;;;;;;;;;;5033291;28;20406;-88
2022/04/09 09:44:49;;;;;;;8.00;3.10;;;;;;;;;;5031999;28;20403;-83
2022/04/09 09:47:15;;;;;;;6.90;5.07;;;;;;;;;;5033649;28;20482;-80
2022/04/09 09:49:56;;;;;;;5.37;3.47;;;;;;;;;;5032022;28;20446;-85
2022/04/09 09:52:35;;;;;;;12.30;4.90;;;;;;;;;;5033284;28;20492;-66
2022/04/09 09:55:10;;;;;;;7.73;3.57;;;;;;;;;;5032833;28;20789;-70
2022/04/09 09:57:38;;;;;;;5.57;3.50;;;;;;;;;;5033537;28;20954;-66
2022/04/09 10:00:07;;;;;;;7.93;3.27;;;;;;;;;;5033273;28;20406;-88
2022/04/09 10:02:33;;;;;;;7.87;4.10;;;;;;;;;;5033031;28;20422;-83
2022/04/09 10:04:59;;;;;;;6.33;3.30;;;;;;;;;;5032693;28;20455;-83
2022/04/09 10:07:25;;;;;;;5.80;3.50;;;;;;;;;;5032887;28;20418;-88
2022/04/09 10:09:53;;;;;;;8.60;2.70;;;;;;;;;;5032661;28;20458;-73
2022/04/09 10:12:20;;;;;;;10.30;4.00;;;;;;;;;;5032793;28;20813;-87
2022/04/09 10:15:04;;;;;;;5.70;2.93;;;;;;;;;;5032872;28;20439;-84
2022/04/09 10:17:31;;;;;;;5.43;2.77;;;;;;;;;;5032723;28;20403;-69
2022/04/09 10:19:58;;;;;;;3.03;2.73;;;;;;;;;;5032581;28;20953;-84
2022/04/09 10:22:25;;;;;;;5.07;3.30;;;;;;;;;;5031322;28;20411;-81
2022/04/09 10:24:51;;;;;;;15.93;3.87;;;;;;;;;;5032472;28;20929;-76
2022/04/09 10:27:33;;;;;;;6.33;2.60;;;;;;;;;;5032249;28;20398;-67
2022/04/09 10:30:02;;;;;;;5.20;3.17;;;;;;;;;;5032803;28;20460;-73
2022/04/09 10:32:45;;;;;;;6.73;3.60;;;;;;;;;;5036123;28;20416;-74
2022/04/09 10:35:24;;;;;;;7.77;3.53;;;;;;;;;;5034676;28;20399;-73
2022/04/09 10:38:09;;;;;;;6.47;3.20;;;;;;;;;;5034707;28;20415;-70
2022/04/09 10:40:35;;;;;;;4.97;3.10;;;;;;;;;;5035895;28;20493;-74
2022/04/09 10:43:03;;;;;;;4.23;2.30;;;;;;;;;;5035889;28;20763;-76
2022/04/09 10:45:29;;;;;;;6.60;2.57;;;;;;;;;;5035806;28;20495;-78
2022/04/09 10:48:06;;;;;;;7.43;3.30;;;;;;;;;;5035731;28;20399;-79
2022/04/09 10:50:51;;;;;;;10.07;3.37;;;;;;;;;;5034432;28;20899;-75
2022/04/09 10:53:17;;;;;;;5.77;2.97;;;;;;;;;;5035696;28;20462;-77
2022/04/09 10:55:43;;;;;;;3.70;2.80;;;;;;;;;;5035535;28;20417;-78
2022/04/09 10:58:10;;;;;;;9.00;3.17;;;;;;;;;;5035578;28;20413;-78
2022/04/09 11:00:37;;;;;;;8.43;2.57;;;;;;;;;;5035530;28;20452;-79
2022/04/09 11:03:15;;;;;;;6.67;3.63;;;;;;;;;;5035469;28;20773;-69
2022/04/09 11:05:43;;;;;;;6.03;3.10;;;;;;;;;;5034120;28;20513;-74
2022/04/09 11:08:14;;;;;;;5.30;2.70;;;;;;;;;;5035499;28;20411;-79
2022/04/09 11:10:41;;;;;;;4.93;3.00;;;;;;;;;;5035233;28;20475;-75
2022/04/09 11:13:10;;;;;;;5.60;2.70;;;;;;;;;;5035302;28;20402;-77
2022/04/09 11:15:37;;;;;;;5.67;2.60;;;;;;;;;;5035243;28;20412;-78
2022/04/09 11:18:03;;;;;;;4.00;2.80;;;;;;;;;;5035268;28;20399;-77
2022/04/09 11:20:33;;;;;;;8.00;3.00;;;;;;;;;;5035279;28;20456;-76
2022/04/09 11:23:10;;;;;;;5.20;3.00;;;;;;;;;;5035215;28;20454;-78
2022/04/09 11:25:36;;;;;;;5.87;3.10;;;;;;;;;;5033826;28;20442;-74
2022/04/09 11:28:06;;;;;;;9.57;3.43;;;;;;;;;;5035070;28;20411;-68
2022/04/09 11:30:32;;;;;;;3.60;2.60;;;;;;;;;;5034961;28;20461;-79
2022/04/09 11:32:58;;;;;;;7.80;3.17;;;;;;;;;;5033761;28;20416;-74
2022/04/09 11:35:24;;;;;;;5.30;3.60;;;;;;;;;;5034663;28;20535;-70
2022/04/09 11:37:51;;;;;;;4.50;2.70;;;;;;;;;;5034873;28;20919;-70
2022/04/09 11:40:18;;;;;;;2.83;2.43;;;;;;;;;;5034938;28;20415;-78
2022/04/09 11:42:45;;;;;;;6.20;2.90;;;;;;;;;;5034375;28;20390;-73
2022/04/09 11:45:27;;;;;;;4.30;2.40;;;;;;;;;;5034699;28;20908;-77
2022/04/09 11:47:59;;;;;;;7.20;3.10;;;;;;;;;;5034623;28;20395;-74
2022/04/09 11:50:25;;;;;;;3.50;2.77;;;;;;;;;;5034604;28;20543;-76
2022/04/09 11:52:52;;;;;;;5.30;2.47;;;;;;;;;;5034527;28;20443;-79
2022/04/09 11:55:19;;;;;;;3.40;2.90;;;;;;;;;;5034461;28;20520;-77
2022/04/09 11:57:49;;;;;;;7.20;2.87;;;;;;;;;;5034486;28;20409;-69
2022/04/09 12:00:15;;;;;;;4.17;2.63;;;;;;;;;;5034472;28;20427;-78
2022/04/09 12:02:42;;;;;;;4.60;3.07;;;;;;;;;;5034357;28;20779;-74
2022/04/09 12:05:11;;;;;;;6.27;2.87;;;;;;;;;;5034144;28;20473;-78
2022/04/09 12:07:41;;;;;;;5.00;3.13;;;;;;;;;;5034387;28;20893;-77
2022/04/09 12:10:08;;;;;;;5.23;2.90;;;;;;;;;;5034231;28;20537;-74
2022/04/09 12:12:41;;;;;;;5.63;3.50;;;;;;;;;;5034256;28;20414;-67
2022/04/09 12:15:07;;;;;;;5.17;2.90;;;;;;;;;;5034042;28;20430;-70
2022/04/09 12:17:34;;;;;;;7.50;3.00;;;;;;;;;;5032957;28;20473;-78
2022/04/09 12:20:00;;;;;;;5.00;2.80;;;;;;;;;;5032914;28;20959;-67
2022/04/09 12:22:26;;;;;;;4.60;3.20;;;;;;;;;;5034089;28;20417;-76
2022/04/09 12:24:59;;;;;;;4.33;2.97;;;;;;;;;;5033987;28;20424;-70
2022/04/09 12:27:44;;;;;;;4.43;3.40;;;;;;;;;;5033891;28;20410;-76
2022/04/09 12:30:11;;;;;;;4.97;2.43;;;;;;;;;;5033817;28;20991;-77
2022/04/09 12:32:39;;;;;;;3.37;2.63;;;;;;;;;;5033768;28;20415;-70
2022/04/09 12:35:05;;;;;;;5.33;2.80;;;;;;;;;;5032356;28;20431;-67
2022/04/09 12:37:42;;;;;;;4.60;2.77;;;;;;;;;;5033693;28;20410;-68
2022/04/09 12:40:15;;;;;;;3.60;2.57;;;;;;;;;;5032389;28;20758;-68
2022/04/09 12:42:41;;;;;;;10.10;3.57;;;;;;;;;;5033825;28;20457;-79
2022/04/09 12:45:11;;;;;;;7.67;2.63;;;;;;;;;;5033697;28;20403;-77
2022/04/09 12:47:37;;;;;;;5.30;2.50;;;;;;;;;;5033642;28;20890;-78
2022/04/09 12:50:04;;;;;;;3.80;2.77;;;;;;;;;;5033511;28;20996;-77
2022/04/09 12:52:31;;;;;;;4.57;2.40;;;;;;;;;;5032248;28;20404;-69
2022/04/09 12:54:58;;;;;;;5.53;2.83;;;;;;;;;;5031138;28;20434;-68
2022/04/09 12:57:25;;;;;;;5.27;2.80;;;;;;;;;;5032099;28;20778;-70
2022/04/09 12:59:51;;;;;;;6.07;3.07;;;;;;;;;;5033466;28;20444;-78
2022/04/09 13:02:17;;;;;;;4.30;3.00;;;;;;;;;;5033413;28;20410;-75
2022/04/09 13:04:43;;;;;;;6.73;2.70;;;;;;;;;;5033221;28;20616;-78
2022/04/09 13:07:09;;;;;;;2.37;2.10;;;;;;;;;;5033381;28;20785;-73
2022/04/09 13:09:35;;;;;;;5.43;2.63;;;;;;;;;;5033391;28;20893;-77
2022/04/09 13:12:02;;;;;;;5.67;3.10;;;;;;;;;;5033236;28;20422;-73
2022/04/09 13:14:29;;;;;;;3.43;2.47;;;;;;;;;;5031995;28;20799;-78
2022/04/09 13:16:55;;;;;;;5.63;2.47;;;;;;;;;;5033054;28;20438;-74
2022/04/09 13:19:21;;;;;;;5.43;2.50;;;;;;;;;;5032005;28;20818;-77
2022/04/09 13:21:47;;;;;;;3.90;2.90;;;;;;;;;;5033161;28;20406;-75
2022/04/09 13:24:14;;;;;;;5.30;3.00;;;;;;;;;;5033122;28;20430;-75
2022/04/09 13:26:40;;;;;;;6.60;3.13;;;;;;;;;;5033077;28;20406;-75
2022/04/09 13:29:06;;;;;;;7.20;2.50;;;;;;;;;;5033060;28;20442;-73
2022/04/09 13:31:33;;;;;;;3.47;2.00;;;;;;;;;;5032855;28;20508;-79
2022/04/09 13:34:00;;;;;;;3.43;2.30;;;;;;;;;;5032953;28;20439;-70
2022/04/09 13:36:26;;;;;;;2.33;2.13;;;;;;;;;;5032693;28;20411;-67
2022/04/09 13:38:52;;;;;;;5.07;2.40;;;;;;;;;;5033034;28;20398;-73
2022/04/09 13:41:21;;;;;;;4.53;2.43;;;;;;;;;;5032954;28;20394;-77
2022/04/09 13:43:47;;;;;;;7.53;3.03;;;;;;;;;;5032921;28;20407;-78
2022/04/09 13:46:13;;;;;;;8.63;2.73;;;;;;;;;;5032845;28;20406;-70
2022/04/09 13:48:39;;;;;;;4.40;2.67;;;;;;;;;;5032920;28;20441;-67
2022/04/09 13:51:05;;;;;;;6.10;2.80;;;;;;;;;;5032760;28;20474;-68
2022/04/09 13:53:31;;;;;;;1.90;1.80;;;;;;;;;;5032737;28;20883;-72
2022/04/09 13:55:57;;;;;;;8.37;2.20;;;;;;;;;;5032587;28;20438;-79
2022/04/09 13:58:23;;;;;;;3.43;2.30;;;;;;;;;;5032898;28;20395;-74
2022/04/09 14:00:49;;;;;;;4.10;2.23;;;;;;;;;;5032667;28;20417;-70
2022/04/09 14:03:15;;;;;;;3.27;2.20;;;;;;;;;;5032758;28;20767;-79
2022/04/09 14:05:41;;;;;;;6.73;2.30;;;;;;;;;;5034228;28;20984;-71
2022/04/09 14:08:07;;;;;;;4.57;3.70;;;;;;;;;;5036667;28;20406;-78
2022/04/09 14:10:33;;;;;;;3.53;2.13;;;;;;;;;;5036500;28;20976;-67
2022/04/09 14:13:00;;;;;;;12.13;2.30;;;;;;;;;;5036518;28;20395;-78
2022/04/09 14:15:26;;;;;;;6.00;2.20;;;;;;;;;;5036498;28;20418;-68
2022/04/09 14:17:52;;;;;;;3.13;2.13;;;;;;;;;;5036417;28;20428;-79
2022/04/09 14:20:18;;;;;;;4.57;2.60;;;;;;;;;;5036380;28;20738;-78
2022/04/09 14:22:45;;;;;;;4.30;2.40;;;;;;;;;;5036396;28;20767;-66
2022/04/09 14:25:11;;;;;;;3.30;2.27;;;;;;;;;;5036178;28;20487;-78
2022/04/09 14:27:37;;;;;;;3.80;2.23;;;;;;;;;;5036185;28;20402;-74
2022/04/09 14:30:03;;;;;;;4.87;2.73;;;;;;;;;;5035992;28;20457;-75
2022/04/09 14:32:30;;;;;;;4.43;2.57;;;;;;;;;;5036024;28;20452;-67
2022/04/09 14:34:56;;;;;;;2.83;2.50;;;;;;;;;;5035985;28;20413;-71
2022/04/09 14:37:27;;;;;;;4.10;2.53;;;;;;;;;;5035951;28;20403;-69
2022/04/09 14:39:53;;;;;;;4.73;2.10;;;;;;;;;;5035905;28;20427;-75